sensor_id;sensor_type;location;lat;lon;timestamp;P1;durP1;ratioP1;P2;durP2;ratioP2
59938;SDS011;45801;51.810;19.444;2023-03-01T00:00:49;104.20;;;57.80;;
59938;SDS011;45801;51.810;19.444;2023-03-01T00:03:22;97.50;;;55.90;;
59938;SDS011;45801;51.810;19.444;2023-03-01T00:05:49;91.60;;;54.30;;
59938;SDS011;45801;51.810;19.444;2023-03-01T00:08:15;94.60;;;53.10;;
59938;SDS011;45801;51.810;19.444;2023-03-01T00:10:42;95.10;;;53.00;;
59938;SDS011;45801;51.810;19.444;2023-03-01T00:13:08;91.40;;;54.40;;
59938;SDS011;45801;51.810;19.444;2023-03-01T00:15:37;98.50;;;56.50;;
59938;SDS011;45801;51.810;19.444;2023-03-01T00:18:04;92.90;;;56.30;;
59938;SDS011;45801;51.810;19.444;2023-03-01T00:20:31;104.50;;;57.50;;
59938;SDS011;45801;51.810;19.444;2023-03-01T00:22:57;100.50;;;58.40;;
59938;SDS011;45801;51.810;19.444;2023-03-01T00:25:24;105.10;;;62.60;;
59938;SDS011;45801;51.810;19.444;2023-03-01T00:27:50;98.80;;;58.10;;
59938;SDS011;45801;51.810;19.444;2023-03-01T00:30:17;101.90;;;62.40;;
59938;SDS011;45801;51.810;19.444;2023-03-01T00:32:43;102.70;;;60.60;;
59938;SDS011;45801;51.810;19.444;2023-03-01T00:35:10;105.10;;;61.50;;
59938;SDS011;45801;51.810;19.444;2023-03-01T00:37:36;97.70;;;56.50;;
59938;SDS011;45801;51.810;19.444;2023-03-01T00:40:03;96.30;;;57.00;;
59938;SDS011;45801;51.810;19.444;2023-03-01T00:42:32;96.00;;;57.50;;
59938;SDS011;45801;51.810;19.444;2023-03-01T00:44:58;95.00;;;58.40;;
59938;SDS011;45801;51.810;19.444;2023-03-01T00:47:25;99.60;;;58.10;;
59938;SDS011;45801;51.810;19.444;2023-03-01T00:49:51;89.50;;;54.20;;
59938;SDS011;45801;51.810;19.444;2023-03-01T00:52:18;88.70;;;54.50;;
59938;SDS011;45801;51.810;19.444;2023-03-01T00:54:44;90.60;;;56.00;;
59938;SDS011;45801;51.810;19.444;2023-03-01T00:57:11;86.70;;;53.10;;
59938;SDS011;45801;51.810;19.444;2023-03-01T00:59:37;93.70;;;54.50;;
59938;SDS011;45801;51.810;19.444;2023-03-01T01:02:04;95.80;;;60.00;;
59938;SDS011;45801;51.810;19.444;2023-03-01T01:04:30;91.10;;;56.90;;
59938;SDS011;45801;51.810;19.444;2023-03-01T01:06:56;91.60;;;57.20;;
59938;SDS011;45801;51.810;19.444;2023-03-01T01:09:23;88.30;;;55.50;;
59938;SDS011;45801;51.810;19.444;2023-03-01T01:11:50;89.50;;;56.10;;
59938;SDS011;45801;51.810;19.444;2023-03-01T01:14:17;91.90;;;56.80;;
59938;SDS011;45801;51.810;19.444;2023-03-01T01:16:45;88.80;;;55.50;;
59938;SDS011;45801;51.810;19.444;2023-03-01T01:19:12;92.30;;;53.40;;
59938;SDS011;45801;51.810;19.444;2023-03-01T01:21:39;88.40;;;52.70;;
59938;SDS011;45801;51.810;19.444;2023-03-01T01:24:09;83.80;;;51.60;;
59938;SDS011;45801;51.810;19.444;2023-03-01T01:26:36;81.20;;;51.20;;
59938;SDS011;45801;51.810;19.444;2023-03-01T01:29:04;88.50;;;50.20;;
59938;SDS011;45801;51.810;19.444;2023-03-01T01:31:32;78.30;;;49.50;;
59938;SDS011;45801;51.810;19.444;2023-03-01T01:34:00;78.80;;;50.50;;
59938;SDS011;45801;51.810;19.444;2023-03-01T01:36:29;76.40;;;46.10;;
59938;SDS011;45801;51.810;19.444;2023-03-01T01:38:56;73.40;;;46.30;;
59938;SDS011;45801;51.810;19.444;2023-03-01T01:41:24;79.30;;;46.80;;
59938;SDS011;45801;51.810;19.444;2023-03-01T01:47:22;75.20;;;45.30;;
59938;SDS011;45801;51.810;19.444;2023-03-01T01:49:42;74.10;;;44.80;;
59938;SDS011;45801;51.810;19.444;2023-03-01T01:52:20;68.50;;;43.60;;
59938;SDS011;45801;51.810;19.444;2023-03-01T01:55:04;73.50;;;43.80;;
59938;SDS011;45801;51.810;19.444;2023-03-01T02:00:10;68.00;;;40.60;;
59938;SDS011;45801;51.810;19.444;2023-03-01T02:02:40;67.00;;;42.60;;
59938;SDS011;45801;51.810;19.444;2023-03-01T02:05:15;69.60;;;40.40;;
59938;SDS011;45801;51.810;19.444;2023-03-01T02:07:58;63.70;;;40.70;;
59938;SDS011;45801;51.810;19.444;2023-03-01T02:10:25;65.70;;;38.80;;
59938;SDS011;45801;51.810;19.444;2023-03-01T02:12:54;63.40;;;39.40;;
59938;SDS011;45801;51.810;19.444;2023-03-01T02:15:22;58.80;;;37.10;;
59938;SDS011;45801;51.810;19.444;2023-03-01T02:17:50;68.10;;;40.10;;
59938;SDS011;45801;51.810;19.444;2023-03-01T02:20:22;68.10;;;39.30;;
59938;SDS011;45801;51.810;19.444;2023-03-01T02:22:56;64.20;;;39.30;;
59938;SDS011;45801;51.810;19.444;2023-03-01T02:28:09;62.70;;;37.90;;
59938;SDS011;45801;51.810;19.444;2023-03-01T02:30:40;59.80;;;38.80;;
59938;SDS011;45801;51.810;19.444;2023-03-01T02:33:27;61.70;;;37.40;;
59938;SDS011;45801;51.810;19.444;2023-03-01T02:36:00;62.00;;;39.20;;
59938;SDS011;45801;51.810;19.444;2023-03-01T02:38:31;64.70;;;38.00;;
59938;SDS011;45801;51.810;19.444;2023-03-01T02:40:58;58.40;;;36.00;;
59938;SDS011;45801;51.810;19.444;2023-03-01T02:43:27;61.50;;;36.00;;
59938;SDS011;45801;51.810;19.444;2023-03-01T02:45:58;61.10;;;37.60;;
59938;SDS011;45801;51.810;19.444;2023-03-01T02:48:38;60.90;;;36.20;;
59938;SDS011;45801;51.810;19.444;2023-03-01T02:56:25;66.60;;;40.10;;
59938;SDS011;45801;51.810;19.444;2023-03-01T02:58:52;73.60;;;40.90;;
59938;SDS011;45801;51.810;19.444;2023-03-01T03:01:19;64.90;;;39.30;;
59938;SDS011;45801;51.810;19.444;2023-03-01T03:03:46;60.80;;;37.00;;
59938;SDS011;45801;51.810;19.444;2023-03-01T03:06:13;64.90;;;38.50;;
59938;SDS011;45801;51.810;19.444;2023-03-01T03:08:39;55.70;;;35.80;;
59938;SDS011;45801;51.810;19.444;2023-03-01T03:11:06;58.50;;;35.90;;
59938;SDS011;45801;51.810;19.444;2023-03-01T03:13:32;57.30;;;35.90;;
59938;SDS011;45801;51.810;19.444;2023-03-01T03:15:59;59.00;;;35.50;;
59938;SDS011;45801;51.810;19.444;2023-03-01T03:18:25;59.70;;;37.00;;
59938;SDS011;45801;51.810;19.444;2023-03-01T03:20:52;64.60;;;35.70;;
59938;SDS011;45801;51.810;19.444;2023-03-01T03:23:20;64.90;;;38.30;;
59938;SDS011;45801;51.810;19.444;2023-03-01T03:25:48;68.90;;;40.20;;
59938;SDS011;45801;51.810;19.444;2023-03-01T03:28:16;62.00;;;37.20;;
59938;SDS011;45801;51.810;19.444;2023-03-01T03:30:43;65.00;;;38.10;;
59938;SDS011;45801;51.810;19.444;2023-03-01T03:33:11;64.40;;;39.00;;
59938;SDS011;45801;51.810;19.444;2023-03-01T03:35:39;61.90;;;40.00;;
59938;SDS011;45801;51.810;19.444;2023-03-01T03:38:11;62.80;;;38.00;;
59938;SDS011;45801;51.810;19.444;2023-03-01T03:40:43;71.70;;;40.70;;
59938;SDS011;45801;51.810;19.444;2023-03-01T03:43:15;65.30;;;39.10;;
59938;SDS011;45801;51.810;19.444;2023-03-01T03:45:46;62.20;;;38.20;;
59938;SDS011;45801;51.810;19.444;2023-03-01T03:48:14;67.30;;;41.90;;
59938;SDS011;45801;51.810;19.444;2023-03-01T03:50:46;64.90;;;38.90;;
59938;SDS011;45801;51.810;19.444;2023-03-01T03:53:15;64.50;;;38.90;;
59938;SDS011;45801;51.810;19.444;2023-03-01T03:55:42;62.50;;;38.90;;
59938;SDS011;45801;51.810;19.444;2023-03-01T03:58:11;66.10;;;41.10;;
59938;SDS011;45801;51.810;19.444;2023-03-01T04:00:38;53.90;;;33.70;;
59938;SDS011;45801;51.810;19.444;2023-03-01T04:03:10;64.80;;;38.90;;
59938;SDS011;45801;51.810;19.444;2023-03-01T04:05:40;59.30;;;37.40;;
59938;SDS011;45801;51.810;19.444;2023-03-01T04:08:08;64.10;;;37.20;;
59938;SDS011;45801;51.810;19.444;2023-03-01T04:10:45;59.70;;;37.80;;
59938;SDS011;45801;51.810;19.444;2023-03-01T04:13:15;66.50;;;38.30;;
59938;SDS011;45801;51.810;19.444;2023-03-01T04:15:43;59.10;;;36.90;;
59938;SDS011;45801;51.810;19.444;2023-03-01T04:18:13;62.00;;;36.20;;
59938;SDS011;45801;51.810;19.444;2023-03-01T04:20:42;57.90;;;35.80;;
59938;SDS011;45801;51.810;19.444;2023-03-01T04:23:12;57.20;;;35.70;;
59938;SDS011;45801;51.810;19.444;2023-03-01T04:25:44;61.70;;;38.90;;
59938;SDS011;45801;51.810;19.444;2023-03-01T04:28:11;57.30;;;35.40;;
59938;SDS011;45801;51.810;19.444;2023-03-01T04:30:38;62.10;;;34.10;;
59938;SDS011;45801;51.810;19.444;2023-03-01T04:33:06;54.60;;;33.40;;
59938;SDS011;45801;51.810;19.444;2023-03-01T04:35:34;52.50;;;32.30;;
59938;SDS011;45801;51.810;19.444;2023-03-01T04:38:02;52.90;;;32.90;;
59938;SDS011;45801;51.810;19.444;2023-03-01T04:40:30;53.40;;;31.70;;
59938;SDS011;45801;51.810;19.444;2023-03-01T04:42:56;53.60;;;32.00;;
59938;SDS011;45801;51.810;19.444;2023-03-01T04:45:23;52.20;;;32.30;;
59938;SDS011;45801;51.810;19.444;2023-03-01T04:47:50;51.50;;;30.90;;
59938;SDS011;45801;51.810;19.444;2023-03-01T04:50:18;51.70;;;30.90;;
59938;SDS011;45801;51.810;19.444;2023-03-01T04:52:49;48.60;;;30.20;;
59938;SDS011;45801;51.810;19.444;2023-03-01T04:55:16;46.60;;;29.10;;
59938;SDS011;45801;51.810;19.444;2023-03-01T04:57:42;46.50;;;28.40;;
59938;SDS011;45801;51.810;19.444;2023-03-01T05:00:12;45.80;;;28.90;;
59938;SDS011;45801;51.810;19.444;2023-03-01T05:02:47;50.40;;;29.90;;
59938;SDS011;45801;51.810;19.444;2023-03-01T05:05:24;47.50;;;28.80;;
59938;SDS011;45801;51.810;19.444;2023-03-01T05:07:52;48.70;;;31.70;;
59938;SDS011;45801;51.810;19.444;2023-03-01T05:10:19;52.40;;;28.90;;
59938;SDS011;45801;51.810;19.444;2023-03-01T05:12:47;49.10;;;29.20;;
59938;SDS011;45801;51.810;19.444;2023-03-01T05:15:14;42.30;;;26.50;;
59938;SDS011;45801;51.810;19.444;2023-03-01T05:17:41;45.70;;;29.10;;
59938;SDS011;45801;51.810;19.444;2023-03-01T05:20:08;45.50;;;29.50;;
59938;SDS011;45801;51.810;19.444;2023-03-01T05:22:36;45.10;;;29.90;;
59938;SDS011;45801;51.810;19.444;2023-03-01T05:25:03;50.40;;;29.90;;
59938;SDS011;45801;51.810;19.444;2023-03-01T05:27:30;48.10;;;31.10;;
59938;SDS011;45801;51.810;19.444;2023-03-01T05:29:57;46.90;;;30.50;;
59938;SDS011;45801;51.810;19.444;2023-03-01T05:32:23;49.70;;;29.60;;
59938;SDS011;45801;51.810;19.444;2023-03-01T05:34:50;51.60;;;31.70;;
59938;SDS011;45801;51.810;19.444;2023-03-01T05:37:18;53.90;;;29.50;;
59938;SDS011;45801;51.810;19.444;2023-03-01T05:39:46;51.10;;;30.50;;
59938;SDS011;45801;51.810;19.444;2023-03-01T05:42:12;48.60;;;29.90;;
59938;SDS011;45801;51.810;19.444;2023-03-01T05:44:39;52.90;;;32.30;;
59938;SDS011;45801;51.810;19.444;2023-03-01T05:47:05;50.30;;;30.70;;
59938;SDS011;45801;51.810;19.444;2023-03-01T05:49:32;46.70;;;30.30;;
59938;SDS011;45801;51.810;19.444;2023-03-01T05:51:58;48.40;;;30.60;;
59938;SDS011;45801;51.810;19.444;2023-03-01T05:54:25;52.50;;;33.10;;
59938;SDS011;45801;51.810;19.444;2023-03-01T05:56:51;53.80;;;31.50;;
59938;SDS011;45801;51.810;19.444;2023-03-01T05:59:18;57.40;;;33.00;;
59938;SDS011;45801;51.810;19.444;2023-03-01T06:01:45;53.80;;;32.00;;
59938;SDS011;45801;51.810;19.444;2023-03-01T06:04:12;54.20;;;33.30;;
59938;SDS011;45801;51.810;19.444;2023-03-01T06:06:38;61.90;;;34.30;;
59938;SDS011;45801;51.810;19.444;2023-03-01T06:09:06;51.30;;;31.10;;
59938;SDS011;45801;51.810;19.444;2023-03-01T06:11:35;58.50;;;33.70;;
59938;SDS011;45801;51.810;19.444;2023-03-01T06:14:03;53.50;;;32.20;;
59938;SDS011;45801;51.810;19.444;2023-03-01T06:16:31;56.50;;;33.80;;
59938;SDS011;45801;51.810;19.444;2023-03-01T06:18:58;53.70;;;35.40;;
59938;SDS011;45801;51.810;19.444;2023-03-01T06:21:24;58.70;;;35.30;;
59938;SDS011;45801;51.810;19.444;2023-03-01T06:23:51;60.90;;;37.10;;
59938;SDS011;45801;51.810;19.444;2023-03-01T06:26:18;57.70;;;35.60;;
59938;SDS011;45801;51.810;19.444;2023-03-01T06:28:44;59.10;;;34.70;;
59938;SDS011;45801;51.810;19.444;2023-03-01T06:31:12;62.70;;;35.20;;
59938;SDS011;45801;51.810;19.444;2023-03-01T06:33:39;62.60;;;38.00;;
59938;SDS011;45801;51.810;19.444;2023-03-01T06:36:05;64.10;;;35.40;;
59938;SDS011;45801;51.810;19.444;2023-03-01T06:38:33;55.80;;;34.60;;
59938;SDS011;45801;51.810;19.444;2023-03-01T06:41:00;55.90;;;35.50;;
59938;SDS011;45801;51.810;19.444;2023-03-01T06:43:27;59.30;;;37.40;;
59938;SDS011;45801;51.810;19.444;2023-03-01T06:45:54;59.30;;;36.00;;
59938;SDS011;45801;51.810;19.444;2023-03-01T06:48:20;59.80;;;37.00;;
59938;SDS011;45801;51.810;19.444;2023-03-01T06:50:47;63.50;;;39.90;;
59938;SDS011;45801;51.810;19.444;2023-03-01T06:53:13;65.40;;;40.00;;
59938;SDS011;45801;51.810;19.444;2023-03-01T06:55:39;66.90;;;38.40;;
59938;SDS011;45801;51.810;19.444;2023-03-01T06:58:06;70.50;;;38.20;;
59938;SDS011;45801;51.810;19.444;2023-03-01T07:00:32;63.40;;;37.00;;
59938;SDS011;45801;51.810;19.444;2023-03-01T07:03:00;62.10;;;36.90;;
59938;SDS011;45801;51.810;19.444;2023-03-01T07:05:29;61.30;;;36.40;;
59938;SDS011;45801;51.810;19.444;2023-03-01T07:07:56;62.30;;;37.60;;
59938;SDS011;45801;51.810;19.444;2023-03-01T07:10:23;71.80;;;39.60;;
59938;SDS011;45801;51.810;19.444;2023-03-01T07:12:50;70.10;;;39.10;;
59938;SDS011;45801;51.810;19.444;2023-03-01T07:15:16;63.50;;;36.30;;
59938;SDS011;45801;51.810;19.444;2023-03-01T07:17:43;58.50;;;36.50;;
59938;SDS011;45801;51.810;19.444;2023-03-01T07:20:11;57.80;;;33.20;;
59938;SDS011;45801;51.810;19.444;2023-03-01T07:22:39;55.70;;;32.80;;
59938;SDS011;45801;51.810;19.444;2023-03-01T07:25:07;57.30;;;35.00;;
59938;SDS011;45801;51.810;19.444;2023-03-01T07:27:35;51.60;;;33.70;;
59938;SDS011;45801;51.810;19.444;2023-03-01T07:30:02;58.00;;;35.00;;
59938;SDS011;45801;51.810;19.444;2023-03-01T07:32:29;53.80;;;33.10;;
59938;SDS011;45801;51.810;19.444;2023-03-01T07:34:55;54.20;;;30.60;;
59938;SDS011;45801;51.810;19.444;2023-03-01T07:37:22;50.60;;;29.80;;
59938;SDS011;45801;51.810;19.444;2023-03-01T07:39:48;45.50;;;28.30;;
59938;SDS011;45801;51.810;19.444;2023-03-01T07:42:15;51.20;;;29.20;;
59938;SDS011;45801;51.810;19.444;2023-03-01T07:44:42;45.80;;;26.80;;
59938;SDS011;45801;51.810;19.444;2023-03-01T07:47:09;47.00;;;27.30;;
59938;SDS011;45801;51.810;19.444;2023-03-01T07:49:35;34.30;;;18.30;;
59938;SDS011;45801;51.810;19.444;2023-03-01T07:52:03;47.90;;;27.60;;
59938;SDS011;45801;51.810;19.444;2023-03-01T07:54:29;40.00;;;22.60;;
59938;SDS011;45801;51.810;19.444;2023-03-01T07:56:56;46.50;;;27.30;;
59938;SDS011;45801;51.810;19.444;2023-03-01T07:59:23;50.70;;;30.00;;
59938;SDS011;45801;51.810;19.444;2023-03-01T08:01:56;46.80;;;27.70;;
59938;SDS011;45801;51.810;19.444;2023-03-01T08:04:23;53.40;;;30.70;;
59938;SDS011;45801;51.810;19.444;2023-03-01T08:06:51;47.20;;;29.70;;
59938;SDS011;45801;51.810;19.444;2023-03-01T08:09:18;44.20;;;29.20;;
59938;SDS011;45801;51.810;19.444;2023-03-01T08:11:44;44.60;;;28.00;;
59938;SDS011;45801;51.810;19.444;2023-03-01T08:14:11;41.70;;;24.40;;
59938;SDS011;45801;51.810;19.444;2023-03-01T08:16:38;46.70;;;25.00;;
59938;SDS011;45801;51.810;19.444;2023-03-01T08:19:08;38.40;;;22.50;;
59938;SDS011;45801;51.810;19.444;2023-03-01T08:21:36;41.80;;;25.00;;
59938;SDS011;45801;51.810;19.444;2023-03-01T08:24:04;36.20;;;23.60;;
59938;SDS011;45801;51.810;19.444;2023-03-01T08:26:32;46.00;;;24.60;;
59938;SDS011;45801;51.810;19.444;2023-03-01T08:28:59;39.30;;;22.90;;
59938;SDS011;45801;51.810;19.444;2023-03-01T08:31:28;35.30;;;23.00;;
59938;SDS011;45801;51.810;19.444;2023-03-01T08:33:59;35.70;;;20.10;;
59938;SDS011;45801;51.810;19.444;2023-03-01T08:36:28;32.70;;;20.60;;
59938;SDS011;45801;51.810;19.444;2023-03-01T08:38:56;37.50;;;22.40;;
59938;SDS011;45801;51.810;19.444;2023-03-01T08:41:23;32.60;;;19.00;;
59938;SDS011;45801;51.810;19.444;2023-03-01T08:43:50;31.60;;;19.60;;
59938;SDS011;45801;51.810;19.444;2023-03-01T08:46:17;33.30;;;20.20;;
59938;SDS011;45801;51.810;19.444;2023-03-01T08:48:43;33.70;;;19.00;;
59938;SDS011;45801;51.810;19.444;2023-03-01T08:51:11;33.80;;;18.50;;
59938;SDS011;45801;51.810;19.444;2023-03-01T08:53:40;31.10;;;16.90;;
59938;SDS011;45801;51.810;19.444;2023-03-01T08:56:07;28.80;;;17.40;;
59938;SDS011;45801;51.810;19.444;2023-03-01T08:58:34;34.00;;;18.90;;
59938;SDS011;45801;51.810;19.444;2023-03-01T09:01:06;30.60;;;17.50;;
59938;SDS011;45801;51.810;19.444;2023-03-01T09:03:33;28.00;;;16.50;;
59938;SDS011;45801;51.810;19.444;2023-03-01T09:06:00;29.60;;;17.60;;
59938;SDS011;45801;51.810;19.444;2023-03-01T09:08:29;29.40;;;17.10;;
59938;SDS011;45801;51.810;19.444;2023-03-01T09:10:55;24.80;;;13.90;;
59938;SDS011;45801;51.810;19.444;2023-03-01T09:13:22;26.60;;;16.30;;
59938;SDS011;45801;51.810;19.444;2023-03-01T09:15:53;26.20;;;16.00;;
59938;SDS011;45801;51.810;19.444;2023-03-01T09:18:20;26.50;;;15.60;;
59938;SDS011;45801;51.810;19.444;2023-03-01T09:20:47;24.10;;;13.30;;
59938;SDS011;45801;51.810;19.444;2023-03-01T09:23:14;21.70;;;13.10;;
59938;SDS011;45801;51.810;19.444;2023-03-01T09:25:41;23.50;;;13.70;;
59938;SDS011;45801;51.810;19.444;2023-03-01T09:28:07;22.20;;;13.20;;
59938;SDS011;45801;51.810;19.444;2023-03-01T09:30:35;26.40;;;14.20;;
59938;SDS011;45801;51.810;19.444;2023-03-01T09:33:01;26.50;;;15.00;;
59938;SDS011;45801;51.810;19.444;2023-03-01T09:35:28;23.30;;;12.60;;
59938;SDS011;45801;51.810;19.444;2023-03-01T09:37:54;22.60;;;12.40;;
59938;SDS011;45801;51.810;19.444;2023-03-01T09:40:21;22.00;;;11.40;;
59938;SDS011;45801;51.810;19.444;2023-03-01T09:45:29;21.20;;;11.30;;
59938;SDS011;45801;51.810;19.444;2023-03-01T09:48:01;23.50;;;12.90;;
59938;SDS011;45801;51.810;19.444;2023-03-01T09:50:36;21.90;;;12.20;;
59938;SDS011;45801;51.810;19.444;2023-03-01T09:53:16;24.20;;;12.50;;
59938;SDS011;45801;51.810;19.444;2023-03-01T09:55:55;25.50;;;13.80;;
59938;SDS011;45801;51.810;19.444;2023-03-01T09:58:41;21.40;;;12.20;;
59938;SDS011;45801;51.810;19.444;2023-03-01T10:01:35;17.90;;;9.30;;
59938;SDS011;45801;51.810;19.444;2023-03-01T10:09:47;20.80;;;12.40;;
59938;SDS011;45801;51.810;19.444;2023-03-01T10:12:18;25.30;;;13.50;;
59938;SDS011;45801;51.810;19.444;2023-03-01T10:22:52;19.60;;;11.40;;
59938;SDS011;45801;51.810;19.444;2023-03-01T10:25:38;18.30;;;10.60;;
59938;SDS011;45801;51.810;19.444;2023-03-01T10:28:20;22.00;;;11.30;;
59938;SDS011;45801;51.810;19.444;2023-03-01T10:30:53;17.90;;;9.50;;
59938;SDS011;45801;51.810;19.444;2023-03-01T10:33:20;17.80;;;10.20;;
59938;SDS011;45801;51.810;19.444;2023-03-01T10:35:50;16.10;;;8.70;;
59938;SDS011;45801;51.810;19.444;2023-03-01T10:38:18;15.70;;;9.10;;
59938;SDS011;45801;51.810;19.444;2023-03-01T10:40:50;16.70;;;9.00;;
59938;SDS011;45801;51.810;19.444;2023-03-01T10:43:43;19.30;;;9.80;;
59938;SDS011;45801;51.810;19.444;2023-03-01T10:46:49;17.50;;;8.70;;
59938;SDS011;45801;51.810;19.444;2023-03-01T10:49:23;20.40;;;11.30;;
59938;SDS011;45801;51.810;19.444;2023-03-01T10:51:53;20.60;;;10.60;;
59938;SDS011;45801;51.810;19.444;2023-03-01T10:56:56;21.60;;;11.00;;
59938;SDS011;45801;51.810;19.444;2023-03-01T10:59:29;21.70;;;11.20;;
59938;SDS011;45801;51.810;19.444;2023-03-01T11:02:03;19.20;;;11.10;;
59938;SDS011;45801;51.810;19.444;2023-03-01T11:07:27;20.50;;;10.90;;
59938;SDS011;45801;51.810;19.444;2023-03-01T11:09:54;21.50;;;11.90;;
59938;SDS011;45801;51.810;19.444;2023-03-01T11:12:21;19.40;;;9.50;;
59938;SDS011;45801;51.810;19.444;2023-03-01T11:14:49;18.70;;;10.80;;
59938;SDS011;45801;51.810;19.444;2023-03-01T11:17:35;18.90;;;10.70;;
59938;SDS011;45801;51.810;19.444;2023-03-01T11:22:44;19.30;;;10.90;;
59938;SDS011;45801;51.810;19.444;2023-03-01T11:25:15;18.00;;;10.20;;
59938;SDS011;45801;51.810;19.444;2023-03-01T11:27:44;17.50;;;9.60;;
59938;SDS011;45801;51.810;19.444;2023-03-01T11:30:20;19.50;;;11.00;;
59938;SDS011;45801;51.810;19.444;2023-03-01T11:35:29;18.30;;;9.50;;
59938;SDS011;45801;51.810;19.444;2023-03-01T11:41:15;17.00;;;9.30;;
59938;SDS011;45801;51.810;19.444;2023-03-01T12:12:25;11.00;;;6.30;;
59938;SDS011;45801;51.810;19.444;2023-03-01T12:40:20;13.30;;;6.40;;
59938;SDS011;45801;51.810;19.444;2023-03-01T12:51:28;11.20;;;6.20;;
59938;SDS011;45801;51.810;19.444;2023-03-01T12:53:58;13.40;;;7.90;;
59938;SDS011;45801;51.810;19.444;2023-03-01T12:56:31;14.70;;;8.00;;
59938;SDS011;45801;51.810;19.444;2023-03-01T12:59:02;13.30;;;7.20;;
59938;SDS011;45801;51.810;19.444;2023-03-01T13:01:39;13.50;;;6.70;;
59938;SDS011;45801;51.810;19.444;2023-03-01T13:04:53;14.00;;;7.30;;
59938;SDS011;45801;51.810;19.444;2023-03-01T13:07:35;14.30;;;6.40;;
59938;SDS011;45801;51.810;19.444;2023-03-01T13:13:11;16.30;;;8.60;;
59938;SDS011;45801;51.810;19.444;2023-03-01T13:15:40;14.10;;;8.40;;
59938;SDS011;45801;51.810;19.444;2023-03-01T13:26:04;15.70;;;7.70;;
59938;SDS011;45801;51.810;19.444;2023-03-01T13:31:07;13.30;;;6.60;;
59938;SDS011;45801;51.810;19.444;2023-03-01T13:33:51;16.70;;;9.00;;
59938;SDS011;45801;51.810;19.444;2023-03-01T13:38:56;17.10;;;9.40;;
59938;SDS011;45801;51.810;19.444;2023-03-01T13:49:29;14.50;;;7.40;;
59938;SDS011;45801;51.810;19.444;2023-03-01T13:52:43;14.60;;;7.00;;
59938;SDS011;45801;51.810;19.444;2023-03-01T14:03:59;11.40;;;6.00;;
59938;SDS011;45801;51.810;19.444;2023-03-01T14:06:31;16.30;;;7.20;;
59938;SDS011;45801;51.810;19.444;2023-03-01T14:09:08;12.80;;;6.40;;
59938;SDS011;45801;51.810;19.444;2023-03-01T14:12:04;11.60;;;5.90;;
59938;SDS011;45801;51.810;19.444;2023-03-01T14:20:14;13.60;;;6.30;;
59938;SDS011;45801;51.810;19.444;2023-03-01T14:22:48;11.70;;;6.30;;
59938;SDS011;45801;51.810;19.444;2023-03-01T14:25:28;10.70;;;5.90;;
59938;SDS011;45801;51.810;19.444;2023-03-01T14:30:48;17.00;;;9.70;;
59938;SDS011;45801;51.810;19.444;2023-03-01T14:35:53;13.10;;;7.00;;
59938;SDS011;45801;51.810;19.444;2023-03-01T14:38:21;13.10;;;6.00;;
59938;SDS011;45801;51.810;19.444;2023-03-01T14:40:50;13.50;;;6.80;;
59938;SDS011;45801;51.810;19.444;2023-03-01T14:43:22;13.00;;;7.00;;
59938;SDS011;45801;51.810;19.444;2023-03-01T14:45:50;13.20;;;7.60;;
59938;SDS011;45801;51.810;19.444;2023-03-01T14:48:18;14.60;;;8.60;;
59938;SDS011;45801;51.810;19.444;2023-03-01T14:50:45;12.90;;;7.30;;
59938;SDS011;45801;51.810;19.444;2023-03-01T14:53:16;14.90;;;6.50;;
59938;SDS011;45801;51.810;19.444;2023-03-01T14:55:47;13.00;;;6.30;;
59938;SDS011;45801;51.810;19.444;2023-03-01T14:58:19;14.20;;;5.90;;
59938;SDS011;45801;51.810;19.444;2023-03-01T15:00:57;13.30;;;6.90;;
59938;SDS011;45801;51.810;19.444;2023-03-01T15:03:33;15.10;;;7.20;;
59938;SDS011;45801;51.810;19.444;2023-03-01T15:06:06;14.40;;;7.50;;
59938;SDS011;45801;51.810;19.444;2023-03-01T15:08:35;13.80;;;7.40;;
59938;SDS011;45801;51.810;19.444;2023-03-01T15:11:22;12.20;;;6.00;;
59938;SDS011;45801;51.810;19.444;2023-03-01T15:13:58;16.60;;;7.60;;
59938;SDS011;45801;51.810;19.444;2023-03-01T15:16:27;15.50;;;7.30;;
59938;SDS011;45801;51.810;19.444;2023-03-01T15:19:04;15.10;;;8.00;;
59938;SDS011;45801;51.810;19.444;2023-03-01T15:21:38;13.70;;;7.00;;
59938;SDS011;45801;51.810;19.444;2023-03-01T15:26:39;14.00;;;8.10;;
59938;SDS011;45801;51.810;19.444;2023-03-01T15:29:19;15.10;;;8.40;;
59938;SDS011;45801;51.810;19.444;2023-03-01T15:41:23;15.20;;;7.70;;
59938;SDS011;45801;51.810;19.444;2023-03-01T15:43:52;18.80;;;9.80;;
59938;SDS011;45801;51.810;19.444;2023-03-01T15:46:24;17.10;;;9.40;;
59938;SDS011;45801;51.810;19.444;2023-03-01T15:48:57;22.80;;;10.70;;
59938;SDS011;45801;51.810;19.444;2023-03-01T15:51:31;22.40;;;12.00;;
59938;SDS011;45801;51.810;19.444;2023-03-01T15:54:01;28.00;;;14.60;;
59938;SDS011;45801;51.810;19.444;2023-03-01T15:56:30;34.10;;;15.80;;
59938;SDS011;45801;51.810;19.444;2023-03-01T15:58:57;31.20;;;14.90;;
59938;SDS011;45801;51.810;19.444;2023-03-01T16:01:26;27.80;;;13.20;;
59938;SDS011;45801;51.810;19.444;2023-03-01T16:03:53;27.20;;;14.40;;
59938;SDS011;45801;51.810;19.444;2023-03-01T16:06:20;36.60;;;19.00;;
59938;SDS011;45801;51.810;19.444;2023-03-01T16:08:46;36.00;;;18.80;;
59938;SDS011;45801;51.810;19.444;2023-03-01T16:11:17;27.40;;;14.60;;
59938;SDS011;45801;51.810;19.444;2023-03-01T16:13:45;24.10;;;12.10;;
59938;SDS011;45801;51.810;19.444;2023-03-01T16:16:12;26.60;;;13.70;;
59938;SDS011;45801;51.810;19.444;2023-03-01T16:18:43;28.40;;;15.60;;
59938;SDS011;45801;51.810;19.444;2023-03-01T16:21:12;35.20;;;18.30;;
59938;SDS011;45801;51.810;19.444;2023-03-01T16:23:46;24.20;;;16.50;;
59938;SDS011;45801;51.810;19.444;2023-03-01T16:26:13;32.80;;;19.40;;
59938;SDS011;45801;51.810;19.444;2023-03-01T16:28:40;38.40;;;20.10;;
59938;SDS011;45801;51.810;19.444;2023-03-01T16:31:08;44.70;;;23.30;;
59938;SDS011;45801;51.810;19.444;2023-03-01T16:33:36;40.10;;;22.70;;
59938;SDS011;45801;51.810;19.444;2023-03-01T16:36:06;43.70;;;21.50;;
59938;SDS011;45801;51.810;19.444;2023-03-01T16:38:37;42.40;;;21.20;;
59938;SDS011;45801;51.810;19.444;2023-03-01T16:41:05;37.20;;;19.20;;
59938;SDS011;45801;51.810;19.444;2023-03-01T16:43:31;30.70;;;16.80;;
59938;SDS011;45801;51.810;19.444;2023-03-01T16:45:58;32.50;;;18.00;;
59938;SDS011;45801;51.810;19.444;2023-03-01T16:48:25;29.80;;;14.70;;
59938;SDS011;45801;51.810;19.444;2023-03-01T16:50:56;27.90;;;15.30;;
59938;SDS011;45801;51.810;19.444;2023-03-01T16:53:24;35.10;;;16.80;;
59938;SDS011;45801;51.810;19.444;2023-03-01T16:55:54;30.90;;;15.30;;
59938;SDS011;45801;51.810;19.444;2023-03-01T16:58:22;30.50;;;15.20;;
59938;SDS011;45801;51.810;19.444;2023-03-01T17:00:54;25.40;;;14.80;;
59938;SDS011;45801;51.810;19.444;2023-03-01T17:03:23;30.10;;;14.40;;
59938;SDS011;45801;51.810;19.444;2023-03-01T17:05:52;29.00;;;14.10;;
59938;SDS011;45801;51.810;19.444;2023-03-01T17:08:18;24.10;;;14.60;;